createdAt,value
2022-09-25T00:00:51.769Z,8.48
2022-09-25T00:03:18.831Z,9.55
2022-09-25T00:05:46.701Z,9.23
2022-09-25T00:08:15.282Z,9.35
2022-09-25T00:10:47.853Z,12.95
2022-09-25T00:13:19.754Z,11.02
2022-09-25T00:15:51.887Z,11.38
2022-09-25T00:18:38.839Z,10.75
2022-09-25T00:21:06.948Z,10.93
2022-09-25T00:23:34.491Z,11.20
2022-09-25T00:26:03.136Z,13.32
2022-09-25T00:28:30.200Z,10.95
2022-09-25T00:30:57.101Z,11.55
2022-09-25T00:33:24.364Z,12.82
2022-09-25T00:35:51.249Z,12.38
2022-09-25T00:38:17.902Z,12.73
2022-09-25T00:40:44.602Z,11.65
2022-09-25T00:43:16.118Z,13.50
2022-09-25T00:45:44.153Z,12.48
2022-09-25T00:48:15.161Z,12.57
2022-09-25T00:50:57.264Z,12.10
2022-09-25T00:53:31.294Z,12.93
2022-09-25T00:56:00.857Z,12.15
2022-09-25T00:58:31.845Z,14.93
2022-09-25T01:00:59.257Z,14.10
2022-09-25T01:03:27.458Z,13.07
2022-09-25T01:05:55.077Z,13.25
2022-09-25T01:08:25.743Z,14.40
2022-09-25T01:10:52.611Z,13.38
2022-09-25T01:13:20.295Z,13.68
2022-09-25T01:16:30.578Z,13.15
2022-09-25T01:18:59.697Z,17.42
2022-09-25T01:22:12.917Z,14.95
2022-09-25T01:25:10.283Z,14.77
2022-09-25T01:28:08.848Z,17.33
2022-09-25T01:30:42.071Z,16.50
2022-09-25T01:33:35.374Z,16.70
2022-09-25T01:36:17.412Z,19.67
2022-09-25T01:39:07.193Z,17.10
2022-09-25T01:41:47.190Z,16.42
2022-09-25T01:44:30.283Z,17.73
2022-09-25T01:47:03.347Z,17.88
2022-09-25T01:49:32.765Z,16.73
2022-09-25T01:52:02.564Z,18.90
2022-09-25T01:54:38.208Z,15.40
2022-09-25T01:57:10.384Z,14.23
2022-09-25T01:59:42.469Z,15.20
2022-09-25T02:02:15.554Z,14.77
2022-09-25T02:04:56.668Z,15.35
2022-09-25T02:07:30.971Z,14.88
2022-09-25T02:10:10.165Z,15.73
2022-09-25T02:12:47.496Z,16.58
2022-09-25T02:15:20.201Z,16.52
2022-09-25T02:18:20.576Z,14.82
2022-09-25T02:20:52.013Z,14.48
2022-09-25T02:23:23.707Z,14.77
2022-09-25T02:26:09.728Z,18.05
2022-09-25T02:28:36.806Z,18.10
2022-09-25T02:31:08.182Z,16.35
2022-09-25T02:33:35.311Z,15.88
2022-09-25T02:36:04.503Z,16.48
2022-09-25T02:38:33.556Z,15.90
2022-09-25T02:41:15.510Z,16.65
2022-09-25T02:44:07.283Z,19.08
2022-09-25T02:46:50.712Z,17.45
2022-09-25T02:49:31.654Z,15.82
2022-09-25T02:52:06.051Z,16.35
2022-09-25T02:54:40.428Z,16.67
2022-09-25T02:57:33.915Z,14.90
2022-09-25T03:00:05.329Z,14.75
2022-09-25T03:02:34.017Z,15.52
2022-09-25T03:05:02.271Z,16.60
2022-09-25T03:07:29.010Z,16.15
2022-09-25T03:09:57.836Z,17.55
2022-09-25T03:12:24.534Z,14.40
2022-09-25T03:14:51.218Z,14.95
2022-09-25T03:17:17.874Z,14.63
2022-09-25T03:19:44.549Z,14.45
2022-09-25T03:22:12.001Z,14.00
2022-09-25T03:24:38.775Z,13.35
2022-09-25T03:27:05.504Z,13.10
2022-09-25T03:29:32.657Z,13.55
2022-09-25T03:31:59.343Z,15.07
2022-09-25T03:34:25.999Z,16.30
2022-09-25T03:36:52.848Z,14.70
2022-09-25T03:39:19.639Z,15.38
2022-09-25T03:41:46.374Z,15.52
2022-09-25T03:44:13.206Z,14.10
2022-09-25T03:46:40.118Z,16.23
2022-09-25T03:49:07.351Z,14.23
2022-09-25T03:51:34.231Z,13.88
2022-09-25T03:54:00.937Z,13.73
2022-09-25T03:56:29.650Z,14.25
2022-09-25T03:58:56.928Z,16.17
2022-09-25T04:01:27.516Z,18.25
2022-09-25T04:03:54.469Z,21.95
2022-09-25T04:06:25.124Z,19.10
2022-09-25T04:08:53.239Z,16.17
2022-09-25T04:11:24.187Z,15.07
2022-09-25T04:13:51.386Z,14.98
2022-09-25T04:16:21.168Z,14.77
2022-09-25T04:18:48.315Z,14.00
2022-09-25T04:21:15.200Z,14.18
2022-09-25T04:23:42.492Z,15.07
2022-09-25T04:26:09.506Z,14.30
2022-09-25T04:28:37.044Z,13.77
2022-09-25T04:31:04.527Z,14.63
2022-09-25T04:33:47.611Z,14.75
2022-09-25T04:36:15.879Z,13.35
2022-09-25T04:38:42.744Z,13.18
2022-09-25T04:41:09.591Z,13.63
2022-09-25T04:43:36.618Z,13.70
2022-09-25T04:46:08.281Z,13.38
2022-09-25T04:48:35.953Z,12.55
2022-09-25T04:51:04.165Z,12.02
2022-09-25T04:53:32.309Z,11.90
2022-09-25T04:56:05.311Z,12.55
2022-09-25T04:58:32.138Z,12.60
2022-09-25T05:01:05.320Z,12.15
2022-09-25T05:03:32.125Z,12.27
2022-09-25T05:05:59.830Z,11.65
2022-09-25T05:08:27.754Z,13.60
2022-09-25T05:10:54.542Z,12.65
2022-09-25T05:13:21.375Z,12.10
2022-09-25T05:15:48.155Z,12.95
2022-09-25T05:18:14.908Z,14.35
2022-09-25T05:20:42.038Z,12.77
2022-09-25T05:23:08.998Z,11.82
2022-09-25T05:25:35.661Z,12.75
2022-09-25T05:28:02.579Z,14.00
2022-09-25T05:30:33.505Z,14.27
2022-09-25T05:33:00.204Z,12.95
2022-09-25T05:35:29.961Z,12.50
2022-09-25T05:37:56.939Z,12.30
2022-09-25T05:40:24.219Z,11.40
2022-09-25T05:42:52.163Z,12.48
2022-09-25T05:45:20.143Z,14.00
2022-09-25T05:47:47.408Z,13.30
2022-09-25T05:50:16.257Z,11.40
2022-09-25T05:52:43.618Z,10.63
2022-09-25T05:55:10.982Z,11.05
2022-09-25T05:57:38.606Z,11.93
2022-09-25T06:00:12.479Z,11.13
2022-09-25T06:02:39.254Z,10.73
2022-09-25T06:05:06.116Z,10.90
2022-09-25T06:07:32.758Z,8.90
2022-09-25T06:09:59.401Z,9.50
2022-09-25T06:12:28.502Z,10.13
2022-09-25T06:14:55.281Z,10.00
2022-09-25T06:17:21.965Z,8.38
2022-09-25T06:19:49.225Z,8.52
2022-09-25T06:22:15.869Z,9.60
2022-09-25T06:24:42.618Z,8.20
2022-09-25T06:27:09.679Z,9.45
2022-09-25T06:29:36.796Z,8.60
2022-09-25T06:32:03.847Z,7.65
2022-09-25T06:34:30.513Z,7.47
2022-09-25T06:36:57.253Z,8.30
2022-09-25T06:39:23.985Z,7.25
2022-09-25T06:41:53.658Z,7.30
2022-09-25T06:44:21.154Z,8.63
2022-09-25T06:46:52.042Z,9.02
2022-09-25T06:49:18.722Z,8.07
2022-09-25T06:51:45.408Z,7.38
2022-09-25T06:54:12.396Z,7.15
2022-09-25T06:56:39.412Z,7.68
2022-09-25T06:59:06.096Z,7.22
2022-09-25T07:01:33.145Z,7.70
2022-09-25T07:03:59.820Z,7.40
2022-09-25T07:06:29.226Z,9.60
2022-09-25T07:08:57.085Z,7.97
2022-09-25T07:11:26.212Z,7.03
2022-09-25T07:13:55.098Z,7.10
2022-09-25T07:16:24.865Z,9.50
2022-09-25T07:18:58.445Z,9.02
2022-09-25T07:21:27.690Z,8.73
2022-09-25T07:23:54.393Z,9.77
2022-09-25T07:26:24.062Z,10.00
2022-09-25T07:29:00.218Z,10.52
2022-09-25T07:31:30.318Z,10.00
2022-09-25T07:33:59.591Z,10.07
2022-09-25T07:36:26.287Z,9.35
2022-09-25T07:38:53.633Z,10.68
2022-09-25T07:41:22.853Z,11.50
2022-09-25T07:44:06.326Z,10.10
2022-09-25T07:46:43.340Z,10.65
2022-09-25T07:49:10.347Z,11.65
2022-09-25T07:51:37.040Z,10.25
2022-09-25T07:54:03.876Z,8.88
2022-09-25T07:56:30.639Z,9.10
2022-09-25T07:58:57.277Z,9.57
2022-09-25T08:01:23.994Z,8.93
2022-09-25T08:03:50.868Z,8.50
2022-09-25T08:06:17.536Z,8.35
2022-09-25T08:08:44.508Z,8.52
2022-09-25T08:11:14.151Z,8.20
2022-09-25T08:13:42.187Z,9.25
2022-09-25T08:16:18.161Z,9.32
2022-09-25T08:18:46.938Z,8.57
2022-09-25T08:21:16.138Z,8.20
2022-09-25T08:23:48.049Z,7.93
2022-09-25T08:26:16.474Z,9.60
2022-09-25T08:28:44.225Z,11.20
2022-09-25T08:31:11.357Z,9.95
2022-09-25T08:33:38.102Z,9.98
2022-09-25T08:36:06.154Z,9.15
2022-09-25T08:38:33.472Z,11.30
2022-09-25T08:41:15.262Z,8.93
2022-09-25T08:44:23.341Z,8.30
2022-09-25T08:47:19.753Z,8.80
2022-09-25T08:50:11.461Z,8.50
2022-09-25T08:52:44.189Z,7.80
2022-09-25T08:55:50.393Z,7.05
2022-09-25T08:58:32.051Z,10.35
2022-09-25T09:01:02.335Z,7.40
2022-09-25T09:03:31.457Z,9.00
2022-09-25T09:06:07.093Z,6.93
2022-09-25T09:08:36.431Z,6.55
2022-09-25T09:11:15.551Z,7.70
2022-09-25T09:13:58.613Z,8.68
2022-09-25T09:16:38.887Z,7.78
2022-09-25T09:19:07.686Z,9.70
2022-09-25T09:21:41.809Z,9.63
2022-09-25T09:24:22.185Z,9.70
2022-09-25T09:27:26.293Z,7.95
2022-09-25T09:30:16.619Z,10.57
2022-09-25T09:33:29.443Z,7.38
2022-09-25T09:36:33.372Z,9.40
2022-09-25T09:39:13.704Z,9.98
2022-09-25T09:41:54.456Z,8.70
2022-09-25T09:44:24.603Z,9.00
2022-09-25T09:47:11.798Z,6.93
2022-09-25T09:49:53.789Z,5.97
2022-09-25T09:52:25.132Z,5.80
2022-09-25T09:55:19.482Z,8.98
2022-09-25T09:57:54.238Z,8.13
2022-09-25T10:00:23.021Z,6.82
2022-09-25T10:03:03.442Z,10.40
2022-09-25T10:05:49.276Z,9.07
2022-09-25T10:08:17.242Z,10.00
2022-09-25T10:10:48.019Z,9.55
2022-09-25T10:13:24.421Z,8.88
2022-09-25T10:16:01.821Z,10.52
2022-09-25T10:18:41.008Z,11.55
2022-09-25T10:21:18.344Z,11.00
2022-09-25T10:23:59.535Z,8.82
2022-09-25T10:26:30.704Z,9.00
2022-09-25T10:29:02.731Z,10.00
2022-09-25T10:31:40.290Z,8.32
2022-09-25T10:34:22.137Z,10.68
2022-09-25T10:36:54.217Z,9.25
2022-09-25T10:39:45.138Z,6.82
2022-09-25T10:42:32.412Z,9.00
2022-09-25T10:44:59.050Z,8.68
2022-09-25T10:47:44.229Z,8.13
2022-09-25T10:50:24.013Z,9.30
2022-09-25T10:52:52.918Z,7.88
2022-09-25T10:55:25.408Z,7.70
2022-09-25T10:58:19.835Z,8.38
2022-09-25T11:00:46.432Z,9.00
2022-09-25T11:03:23.723Z,8.15
2022-09-25T11:05:54.198Z,7.75
2022-09-25T11:08:25.336Z,8.13
2022-09-25T11:10:57.585Z,7.72
2022-09-25T11:13:36.850Z,8.20
2022-09-25T11:16:10.201Z,8.80
2022-09-25T11:18:39.084Z,7.28
2022-09-25T11:21:19.180Z,7.00
2022-09-25T11:24:06.353Z,7.28
2022-09-25T11:26:42.082Z,8.27
2022-09-25T11:29:21.223Z,8.05
2022-09-25T11:31:56.877Z,6.95
2022-09-25T11:35:01.232Z,6.40
2022-09-25T11:37:39.703Z,6.75
2022-09-25T11:40:49.486Z,6.70
2022-09-25T11:43:26.626Z,7.00
2022-09-25T11:46:04.284Z,5.93
2022-09-25T11:48:37.287Z,6.20
2022-09-25T11:51:19.142Z,5.78
2022-09-25T11:54:17.902Z,5.20
2022-09-25T11:57:03.120Z,5.15
2022-09-25T11:59:48.257Z,5.05
2022-09-25T12:02:33.799Z,4.40
2022-09-25T12:05:57.329Z,4.30
2022-09-25T12:08:45.578Z,5.30
2022-09-25T12:11:38.086Z,3.95
2022-09-25T12:14:19.277Z,4.30
2022-09-25T12:16:46.350Z,3.85
2022-09-25T12:19:27.009Z,4.43
2022-09-25T12:22:01.244Z,1.23
2022-09-25T12:24:34.038Z,1.00
2022-09-25T12:27:36.504Z,1.10
2022-09-25T12:30:26.828Z,1.90
2022-09-25T12:33:08.927Z,1.63
2022-09-25T12:35:49.058Z,1.30
2022-09-25T12:38:44.492Z,1.98
2022-09-25T12:41:24.064Z,2.10
2022-09-25T12:44:01.625Z,1.80
2022-09-25T12:46:39.376Z,2.40
2022-09-25T12:49:20.512Z,2.15
2022-09-25T12:51:52.546Z,2.60
2022-09-25T12:54:32.493Z,2.90
2022-09-25T12:57:09.974Z,3.55
2022-09-25T12:59:52.564Z,2.88
2022-09-25T13:02:28.255Z,2.60
2022-09-25T13:05:24.275Z,2.85
2022-09-25T13:08:14.743Z,3.80
2022-09-25T13:11:06.884Z,5.65
2022-09-25T13:13:42.938Z,5.45
2022-09-25T13:16:09.720Z,4.30
2022-09-25T13:18:36.465Z,3.13
2022-09-25T13:21:24.982Z,2.72
2022-09-25T13:23:54.213Z,3.40
2022-09-25T13:26:26.657Z,4.45
2022-09-25T13:28:59.540Z,4.30
2022-09-25T13:31:33.185Z,4.50
2022-09-25T13:34:14.728Z,4.50
2022-09-25T13:36:48.641Z,4.90
2022-09-25T13:39:52.113Z,3.40
2022-09-25T13:42:37.897Z,3.58
2022-09-25T13:45:34.602Z,3.00
2022-09-25T13:48:12.872Z,3.72
2022-09-25T13:50:45.335Z,2.50
2022-09-25T13:53:25.016Z,3.42
2022-09-25T13:55:57.483Z,3.10
2022-09-25T13:58:29.726Z,2.85
2022-09-25T14:01:02.915Z,3.00
2022-09-25T14:03:47.187Z,3.33
2022-09-25T14:06:24.181Z,2.55
2022-09-25T14:08:55.155Z,2.33
2022-09-25T14:11:32.352Z,2.40
2022-09-25T14:14:01.293Z,2.55
2022-09-25T14:16:39.262Z,2.67
2022-09-25T14:19:08.318Z,3.17
2022-09-25T14:21:39.343Z,2.50
2022-09-25T14:24:29.227Z,2.40
2022-09-25T14:26:57.965Z,2.50
2022-09-25T14:29:37.612Z,3.05
2022-09-25T14:32:53.835Z,2.80
2022-09-25T14:35:36.067Z,2.90
2022-09-25T14:38:43.308Z,2.85
2022-09-25T14:41:49.226Z,3.08
2022-09-25T14:44:51.763Z,3.22
2022-09-25T14:47:20.237Z,3.60
2022-09-25T14:49:51.077Z,3.20
2022-09-25T14:52:26.793Z,3.20
2022-09-25T14:54:57.020Z,2.92
2022-09-25T14:57:27.983Z,2.88
2022-09-25T14:59:59.442Z,2.80
2022-09-25T15:02:34.396Z,2.55
2022-09-25T15:05:41.528Z,3.00
2022-09-25T15:08:31.346Z,3.03
2022-09-25T15:11:15.431Z,3.67
2022-09-25T15:13:42.666Z,2.80
2022-09-25T15:16:41.277Z,3.80
2022-09-25T15:19:31.425Z,4.40
2022-09-25T15:21:58.092Z,5.15
2022-09-25T15:24:30.644Z,7.00
2022-09-25T15:27:06.769Z,6.63
2022-09-25T15:29:38.521Z,10.73
2022-09-25T15:32:06.473Z,6.72
2022-09-25T15:34:33.630Z,10.40
2022-09-25T15:37:29.847Z,6.78
2022-09-25T15:40:08.796Z,6.68
2022-09-25T15:42:35.577Z,5.60
2022-09-25T15:45:10.953Z,6.45
2022-09-25T15:47:37.542Z,5.30
2022-09-25T15:50:10.824Z,4.93
2022-09-25T15:52:38.383Z,4.60
2022-09-25T15:55:12.863Z,4.20
2022-09-25T16:00:28.100Z,6.53
2022-09-25T16:03:19.927Z,8.65
2022-09-25T16:05:48.960Z,5.85
2022-09-25T16:08:25.011Z,7.60
2022-09-25T16:11:04.131Z,6.32
2022-09-25T16:13:31.126Z,7.13
2022-09-25T16:15:58.195Z,13.20
2022-09-25T16:18:32.393Z,10.18
2022-09-25T16:21:14.392Z,7.90
2022-09-25T16:23:43.170Z,7.97
2022-09-25T16:26:22.578Z,6.38
2022-09-25T16:29:19.856Z,6.60
2022-09-25T16:31:46.977Z,5.82
2022-09-25T16:34:37.820Z,6.60
2022-09-25T16:37:07.955Z,5.32
2022-09-25T16:39:37.525Z,4.80
2022-09-25T16:42:39.251Z,4.70
2022-09-25T16:45:33.331Z,4.30
2022-09-25T16:48:21.404Z,5.30
2022-09-25T16:50:48.626Z,5.78
2022-09-25T16:53:15.556Z,6.65
2022-09-25T16:55:48.121Z,6.72
2022-09-25T16:58:15.194Z,6.28
2022-09-25T17:00:41.832Z,5.70
2022-09-25T17:03:11.967Z,4.55
2022-09-25T17:05:39.402Z,5.43
2022-09-25T17:08:20.676Z,7.07
2022-09-25T17:10:51.012Z,5.80
2022-09-25T17:13:27.513Z,5.53
2022-09-25T17:15:56.595Z,8.45
2022-09-25T17:18:23.366Z,8.60
2022-09-25T17:20:55.104Z,7.18
2022-09-25T17:23:23.566Z,6.70
2022-09-25T17:25:52.295Z,5.95
2022-09-25T17:28:18.991Z,9.20
2022-09-25T17:30:46.002Z,6.65
2022-09-25T17:33:19.760Z,6.30
2022-09-25T17:35:53.954Z,6.40
2022-09-25T17:38:20.811Z,5.95
2022-09-25T17:40:52.465Z,6.38
2022-09-25T17:43:20.536Z,6.57
2022-09-25T17:45:50.236Z,7.68
2022-09-25T17:48:24.407Z,6.90
2022-09-25T17:50:59.787Z,7.38
2022-09-25T17:53:31.694Z,6.65
2022-09-25T17:56:00.052Z,6.93
2022-09-25T17:58:28.542Z,6.68
2022-09-25T18:00:59.126Z,6.13
2022-09-25T18:03:26.281Z,6.25
2022-09-25T18:05:53.344Z,7.57
2022-09-25T18:08:20.375Z,7.97
2022-09-25T18:10:54.755Z,17.13
2022-09-25T18:13:21.827Z,10.07
2022-09-25T18:15:53.655Z,10.43
2022-09-25T18:18:21.010Z,8.13
2022-09-25T18:21:09.601Z,8.00
2022-09-25T18:23:38.432Z,8.82
2022-09-25T18:26:08.239Z,8.05
2022-09-25T18:28:34.929Z,8.57
2022-09-25T18:31:01.645Z,8.45
2022-09-25T18:33:28.406Z,14.48
2022-09-25T18:35:55.140Z,10.75
2022-09-25T18:38:21.938Z,7.85
2022-09-25T18:40:48.681Z,7.45
2022-09-25T18:43:15.428Z,6.90
2022-09-25T18:45:51.004Z,9.55
2022-09-25T18:48:17.741Z,7.07
2022-09-25T18:50:48.737Z,8.50
2022-09-25T18:53:16.352Z,8.70
2022-09-25T18:55:43.998Z,8.48
2022-09-25T18:58:11.661Z,9.38
2022-09-25T19:00:39.838Z,7.82
2022-09-25T19:03:07.202Z,8.75
2022-09-25T19:05:34.121Z,7.88
2022-09-25T19:08:03.565Z,6.88
2022-09-25T19:10:31.590Z,7.05
2022-09-25T19:12:58.333Z,6.60
2022-09-25T19:15:25.106Z,6.65
2022-09-25T19:17:51.751Z,7.00
2022-09-25T19:20:18.405Z,6.82
2022-09-25T19:22:45.702Z,7.20
2022-09-25T19:25:12.466Z,6.82
2022-09-25T19:27:39.228Z,6.60
2022-09-25T19:30:06.536Z,8.30
2022-09-25T19:32:33.224Z,7.18
2022-09-25T19:34:59.970Z,6.85
2022-09-25T19:37:32.810Z,7.28
2022-09-25T19:40:18.013Z,7.43
2022-09-25T19:42:45.965Z,6.88
2022-09-25T19:45:13.955Z,6.82
2022-09-25T19:47:40.623Z,6.68
2022-09-25T19:50:08.759Z,7.00
2022-09-25T19:52:35.917Z,6.75
2022-09-25T19:55:02.970Z,6.93
2022-09-25T19:57:29.635Z,7.13
2022-09-25T19:59:56.313Z,7.70
2022-09-25T20:02:23.064Z,7.40
2022-09-25T20:04:49.773Z,7.90
2022-09-25T20:07:16.864Z,7.53
2022-09-25T20:09:44.628Z,7.43
2022-09-25T20:12:11.759Z,7.18
2022-09-25T20:14:38.597Z,7.80
2022-09-25T20:17:09.903Z,7.68
2022-09-25T20:19:37.742Z,8.23
2022-09-25T20:22:04.471Z,9.38
2022-09-25T20:24:31.182Z,8.77
2022-09-25T20:26:57.864Z,8.23
2022-09-25T20:29:24.689Z,8.45
2022-09-25T20:31:51.457Z,8.73
2022-09-25T20:34:21.791Z,8.38
2022-09-25T20:36:49.222Z,8.95
2022-09-25T20:39:20.760Z,8.23
2022-09-25T20:41:48.782Z,8.00
2022-09-25T20:44:15.496Z,7.13
2022-09-25T20:46:42.875Z,6.47
2022-09-25T20:49:10.847Z,6.95
2022-09-25T20:51:37.824Z,6.57
2022-09-25T20:54:09.453Z,6.85
2022-09-25T20:56:38.130Z,6.55
2022-09-25T20:59:05.844Z,6.40
2022-09-25T21:01:35.621Z,7.03
2022-09-25T21:04:04.789Z,6.32
2022-09-25T21:06:33.669Z,6.38
2022-09-25T21:09:03.026Z,6.18
2022-09-25T21:11:32.122Z,6.20
2022-09-25T21:14:02.306Z,6.28
2022-09-25T21:16:30.655Z,6.57
2022-09-25T21:18:59.909Z,6.20
2022-09-25T21:21:28.384Z,7.53
2022-09-25T21:23:56.886Z,6.25
2022-09-25T21:26:28.495Z,7.40
2022-09-25T21:28:57.820Z,6.80
2022-09-25T21:31:27.114Z,6.60
2022-09-25T21:33:55.285Z,6.57
2022-09-25T21:36:22.635Z,6.68
2022-09-25T21:38:49.560Z,6.65
2022-09-25T21:41:21.495Z,7.00
2022-09-25T21:43:48.743Z,6.53
2022-09-25T21:46:18.390Z,6.60
2022-09-25T21:48:56.785Z,6.45
2022-09-25T21:51:25.518Z,6.65
2022-09-25T21:53:55.755Z,6.40
2022-09-25T21:56:25.434Z,6.30
2022-09-25T21:58:53.580Z,6.28
2022-09-25T22:01:23.945Z,7.13
2022-09-25T22:03:55.314Z,6.65
2022-09-25T22:06:26.318Z,6.07
2022-09-25T22:08:56.116Z,6.40
2022-09-25T22:11:23.650Z,7.07
2022-09-25T22:13:51.032Z,6.53
2022-09-25T22:16:45.923Z,6.13
2022-09-25T22:19:14.514Z,6.25
2022-09-25T22:21:42.579Z,5.93
2022-09-25T22:24:09.645Z,6.32
2022-09-25T22:26:39.050Z,5.88
2022-09-25T22:29:06.035Z,6.18
2022-09-25T22:31:34.082Z,6.00
2022-09-25T22:34:03.317Z,6.60
2022-09-25T22:36:30.637Z,5.93
2022-09-25T22:38:57.720Z,5.82
2022-09-25T22:41:24.630Z,6.30
2022-09-25T22:43:53.777Z,6.03
2022-09-25T22:46:22.579Z,5.47
2022-09-25T22:48:49.562Z,6.10
2022-09-25T22:51:19.368Z,5.88
2022-09-25T22:53:46.635Z,6.13
2022-09-25T22:56:15.228Z,6.10
2022-09-25T22:58:42.784Z,5.97
2022-09-25T23:01:12.339Z,6.53
2022-09-25T23:03:39.285Z,6.35
2022-09-25T23:06:06.470Z,6.10
2022-09-25T23:08:33.241Z,6.00
2022-09-25T23:11:07.839Z,6.80
2022-09-25T23:13:35.630Z,6.10
2022-09-25T23:16:08.475Z,6.03
2022-09-25T23:18:37.114Z,6.32
2022-09-25T23:21:04.901Z,6.43
2022-09-25T23:23:31.761Z,6.78
2022-09-25T23:26:05.943Z,6.50
2022-09-25T23:28:37.173Z,6.40
2022-09-25T23:31:07.449Z,6.30
2022-09-25T23:33:34.715Z,6.65
2022-09-25T23:36:07.006Z,6.10
2022-09-25T23:38:34.754Z,7.20
2022-09-25T23:41:02.168Z,7.13
2022-09-25T23:43:28.969Z,6.25
2022-09-25T23:45:56.044Z,7.50
2022-09-25T23:48:22.985Z,7.05
2022-09-25T23:50:51.276Z,6.57
2022-09-25T23:53:18.498Z,6.47
2022-09-25T23:55:45.306Z,6.47
2022-09-25T23:58:12.275Z,7.50
